sensor_id;sensor_type;location;lat;lon;timestamp;temperature;humidity
1812;DHT22;904;47.814;11.134;2023-06-04T00:00:38;14.00;84.00
1812;DHT22;904;47.814;11.134;2023-06-04T00:03:05;14.00;83.80
1812;DHT22;904;47.814;11.134;2023-06-04T00:05:32;14.00;83.50
1812;DHT22;904;47.814;11.134;2023-06-04T00:07:59;13.90;83.90
1812;DHT22;904;47.814;11.134;2023-06-04T00:10:26;13.90;84.30
1812;DHT22;904;47.814;11.134;2023-06-04T00:12:54;13.90;84.70
1812;DHT22;904;47.814;11.134;2023-06-04T00:15:21;13.90;84.80
1812;DHT22;904;47.814;11.134;2023-06-04T00:17:48;13.80;84.80
1812;DHT22;904;47.814;11.134;2023-06-04T00:20:16;13.80;85.10
1812;DHT22;904;47.814;11.134;2023-06-04T00:22:43;13.70;85.20
1812;DHT22;904;47.814;11.134;2023-06-04T00:25:10;13.70;85.80
1812;DHT22;904;47.814;11.134;2023-06-04T00:27:37;13.60;85.70
1812;DHT22;904;47.814;11.134;2023-06-04T00:30:07;13.60;86.50
1812;DHT22;904;47.814;11.134;2023-06-04T00:32:35;13.60;86.30
1812;DHT22;904;47.814;11.134;2023-06-04T00:35:03;13.60;85.80
1812;DHT22;904;47.814;11.134;2023-06-04T00:37:30;13.60;86.50
1812;DHT22;904;47.814;11.134;2023-06-04T00:39:57;13.60;87.00
1812;DHT22;904;47.814;11.134;2023-06-04T00:42:24;13.50;87.00
1812;DHT22;904;47.814;11.134;2023-06-04T00:44:51;13.50;86.60
1812;DHT22;904;47.814;11.134;2023-06-04T00:47:21;13.50;86.90
1812;DHT22;904;47.814;11.134;2023-06-04T00:49:48;13.40;88.30
1812;DHT22;904;47.814;11.134;2023-06-04T00:52:15;13.40;87.20
1812;DHT22;904;47.814;11.134;2023-06-04T00:54:42;13.40;87.10
1812;DHT22;904;47.814;11.134;2023-06-04T00:57:10;13.30;87.00
1812;DHT22;904;47.814;11.134;2023-06-04T00:59:39;13.20;87.40
1812;DHT22;904;47.814;11.134;2023-06-04T01:02:11;13.20;88.40
1812;DHT22;904;47.814;11.134;2023-06-04T01:04:48;13.30;89.40
1812;DHT22;904;47.814;11.134;2023-06-04T01:07:18;13.30;89.80
1812;DHT22;904;47.814;11.134;2023-06-04T01:09:47;13.30;89.30
1812;DHT22;904;47.814;11.134;2023-06-04T01:12:14;13.20;89.00
1812;DHT22;904;47.814;11.134;2023-06-04T01:14:41;13.20;89.00
1812;DHT22;904;47.814;11.134;2023-06-04T01:17:15;13.30;89.60
1812;DHT22;904;47.814;11.134;2023-06-04T01:20:05;13.20;89.80
1812;DHT22;904;47.814;11.134;2023-06-04T01:22:42;13.10;89.90
1812;DHT22;904;47.814;11.134;2023-06-04T01:25:13;13.10;89.40
1812;DHT22;904;47.814;11.134;2023-06-04T01:27:47;13.10;89.90
1812;DHT22;904;47.814;11.134;2023-06-04T01:30:16;13.00;90.20
1812;DHT22;904;47.814;11.134;2023-06-04T01:32:44;13.00;90.20
1812;DHT22;904;47.814;11.134;2023-06-04T01:35:14;12.90;90.30
1812;DHT22;904;47.814;11.134;2023-06-04T01:37:41;12.90;90.40
1812;DHT22;904;47.814;11.134;2023-06-04T01:40:09;12.80;90.40
1812;DHT22;904;47.814;11.134;2023-06-04T01:42:36;12.80;90.40
1812;DHT22;904;47.814;11.134;2023-06-04T01:45:05;12.80;90.50
1812;DHT22;904;47.814;11.134;2023-06-04T01:47:32;12.80;91.00
1812;DHT22;904;47.814;11.134;2023-06-04T01:49:59;12.70;91.10
1812;DHT22;904;47.814;11.134;2023-06-04T01:52:27;12.70;91.00
1812;DHT22;904;47.814;11.134;2023-06-04T01:54:54;12.70;90.90
1812;DHT22;904;47.814;11.134;2023-06-04T01:57:21;12.70;91.00
1812;DHT22;904;47.814;11.134;2023-06-04T01:59:48;12.70;90.80
1812;DHT22;904;47.814;11.134;2023-06-04T02:02:16;12.70;90.70
1812;DHT22;904;47.814;11.134;2023-06-04T02:04:44;12.60;90.70
1812;DHT22;904;47.814;11.134;2023-06-04T02:07:12;12.60;90.80
1812;DHT22;904;47.814;11.134;2023-06-04T02:09:44;12.60;90.30
1812;DHT22;904;47.814;11.134;2023-06-04T02:12:11;12.50;90.20
1812;DHT22;904;47.814;11.134;2023-06-04T02:14:38;12.40;90.10
1812;DHT22;904;47.814;11.134;2023-06-04T02:17:07;12.30;90.80
1812;DHT22;904;47.814;11.134;2023-06-04T02:19:38;12.30;91.30
1812;DHT22;904;47.814;11.134;2023-06-04T02:22:05;12.30;91.50
1812;DHT22;904;47.814;11.134;2023-06-04T02:24:33;12.30;91.50
1812;DHT22;904;47.814;11.134;2023-06-04T02:27:01;12.30;91.40
1812;DHT22;904;47.814;11.134;2023-06-04T02:29:28;12.30;91.70
1812;DHT22;904;47.814;11.134;2023-06-04T02:31:55;12.30;92.00
1812;DHT22;904;47.814;11.134;2023-06-04T02:34:22;12.30;92.20
1812;DHT22;904;47.814;11.134;2023-06-04T02:36:50;12.30;92.00
1812;DHT22;904;47.814;11.134;2023-06-04T02:39:17;12.30;91.90
1812;DHT22;904;47.814;11.134;2023-06-04T02:41:44;12.30;91.60
1812;DHT22;904;47.814;11.134;2023-06-04T02:44:13;12.20;91.40
1812;DHT22;904;47.814;11.134;2023-06-04T02:46:40;12.20;91.60
1812;DHT22;904;47.814;11.134;2023-06-04T02:49:07;12.20;91.40
1812;DHT22;904;47.814;11.134;2023-06-04T02:51:34;12.20;91.10
1812;DHT22;904;47.814;11.134;2023-06-04T02:54:01;12.20;90.70
1812;DHT22;904;47.814;11.134;2023-06-04T02:56:29;12.10;90.50
1812;DHT22;904;47.814;11.134;2023-06-04T02:58:56;12.00;90.70
1812;DHT22;904;47.814;11.134;2023-06-04T03:01:25;12.00;91.20
1812;DHT22;904;47.814;11.134;2023-06-04T03:03:53;12.00;91.30
1812;DHT22;904;47.814;11.134;2023-06-04T03:06:21;11.90;91.20
1812;DHT22;904;47.814;11.134;2023-06-04T03:08:49;11.80;91.50
1812;DHT22;904;47.814;11.134;2023-06-04T03:11:16;11.80;91.80
1812;DHT22;904;47.814;11.134;2023-06-04T03:13:45;11.80;91.90
1812;DHT22;904;47.814;11.134;2023-06-04T03:16:12;11.80;92.20
1812;DHT22;904;47.814;11.134;2023-06-04T03:18:41;11.70;92.40
1812;DHT22;904;47.814;11.134;2023-06-04T03:21:09;11.70;92.70
1812;DHT22;904;47.814;11.134;2023-06-04T03:23:37;11.80;92.80
1812;DHT22;904;47.814;11.134;2023-06-04T03:26:05;11.80;92.80
1812;DHT22;904;47.814;11.134;2023-06-04T03:28:33;11.80;92.70
1812;DHT22;904;47.814;11.134;2023-06-04T03:31:00;11.80;92.40
1812;DHT22;904;47.814;11.134;2023-06-04T03:33:27;11.80;92.40
1812;DHT22;904;47.814;11.134;2023-06-04T03:35:56;11.80;92.50
1812;DHT22;904;47.814;11.134;2023-06-04T03:38:24;11.80;92.30
1812;DHT22;904;47.814;11.134;2023-06-04T03:40:51;11.80;92.30
1812;DHT22;904;47.814;11.134;2023-06-04T03:43:19;11.80;92.10
1812;DHT22;904;47.814;11.134;2023-06-04T03:45:46;11.80;92.50
1812;DHT22;904;47.814;11.134;2023-06-04T03:48:13;11.80;92.40
1812;DHT22;904;47.814;11.134;2023-06-04T03:50:40;11.80;92.00
1812;DHT22;904;47.814;11.134;2023-06-04T03:53:09;11.80;92.20
1812;DHT22;904;47.814;11.134;2023-06-04T03:55:36;11.80;92.30
1812;DHT22;904;47.814;11.134;2023-06-04T03:58:03;11.80;92.30
1812;DHT22;904;47.814;11.134;2023-06-04T04:00:31;11.90;92.40
1812;DHT22;904;47.814;11.134;2023-06-04T04:02:58;11.90;92.80
1812;DHT22;904;47.814;11.134;2023-06-04T04:05:25;11.90;92.90
1812;DHT22;904;47.814;11.134;2023-06-04T04:07:52;11.90;93.20
1812;DHT22;904;47.814;11.134;2023-06-04T04:10:21;11.90;92.70
1812;DHT22;904;47.814;11.134;2023-06-04T04:12:48;12.00;92.80
1812;DHT22;904;47.814;11.134;2023-06-04T04:15:17;12.00;92.70
1812;DHT22;904;47.814;11.134;2023-06-04T04:17:44;12.00;92.60
1812;DHT22;904;47.814;11.134;2023-06-04T04:20:11;11.90;92.60
1812;DHT22;904;47.814;11.134;2023-06-04T04:22:40;12.00;92.70
1812;DHT22;904;47.814;11.134;2023-06-04T04:25:08;12.00;92.90
1812;DHT22;904;47.814;11.134;2023-06-04T04:27:36;12.10;92.90
1812;DHT22;904;47.814;11.134;2023-06-04T04:30:07;12.10;92.80
1812;DHT22;904;47.814;11.134;2023-06-04T04:32:35;12.10;93.10
1812;DHT22;904;47.814;11.134;2023-06-04T04:35:04;12.20;93.00
1812;DHT22;904;47.814;11.134;2023-06-04T04:37:33;12.30;92.80
1812;DHT22;904;47.814;11.134;2023-06-04T04:40:06;12.30;92.70
1812;DHT22;904;47.814;11.134;2023-06-04T04:42:36;12.30;93.00
1812;DHT22;904;47.814;11.134;2023-06-04T04:45:03;12.40;93.30
1812;DHT22;904;47.814;11.134;2023-06-04T04:47:31;12.50;93.30
1812;DHT22;904;47.814;11.134;2023-06-04T04:49:58;12.60;93.10
1812;DHT22;904;47.814;11.134;2023-06-04T04:52:25;12.60;92.90
1812;DHT22;904;47.814;11.134;2023-06-04T04:54:57;12.70;92.90
1812;DHT22;904;47.814;11.134;2023-06-04T04:57:24;12.80;93.10
1812;DHT22;904;47.814;11.134;2023-06-04T04:59:52;12.90;93.20
1812;DHT22;904;47.814;11.134;2023-06-04T05:02:22;12.90;93.10
1812;DHT22;904;47.814;11.134;2023-06-04T05:04:49;13.10;93.20
1812;DHT22;904;47.814;11.134;2023-06-04T05:07:16;13.10;93.30
1812;DHT22;904;47.814;11.134;2023-06-04T05:09:45;13.20;93.30
1812;DHT22;904;47.814;11.134;2023-06-04T05:12:12;13.30;93.10
1812;DHT22;904;47.814;11.134;2023-06-04T05:14:39;13.40;93.10
1812;DHT22;904;47.814;11.134;2023-06-04T05:17:08;13.50;93.40
1812;DHT22;904;47.814;11.134;2023-06-04T05:19:36;13.70;93.60
1812;DHT22;904;47.814;11.134;2023-06-04T05:22:05;13.80;93.50
1812;DHT22;904;47.814;11.134;2023-06-04T05:24:32;13.90;93.20
1812;DHT22;904;47.814;11.134;2023-06-04T05:26:59;14.00;93.00
1812;DHT22;904;47.814;11.134;2023-06-04T05:29:26;14.10;92.60
1812;DHT22;904;47.814;11.134;2023-06-04T05:31:53;14.20;92.10
1812;DHT22;904;47.814;11.134;2023-06-04T05:34:22;14.30;91.90
1812;DHT22;904;47.814;11.134;2023-06-04T05:36:48;14.40;91.70
1812;DHT22;904;47.814;11.134;2023-06-04T05:39:15;14.50;91.50
1812;DHT22;904;47.814;11.134;2023-06-04T05:41:44;14.60;91.50
1812;DHT22;904;47.814;11.134;2023-06-04T05:44:11;14.70;91.50
1812;DHT22;904;47.814;11.134;2023-06-04T05:46:37;14.90;91.20
1812;DHT22;904;47.814;11.134;2023-06-04T05:49:06;14.90;90.60
1812;DHT22;904;47.814;11.134;2023-06-04T05:51:34;15.00;90.70
1812;DHT22;904;47.814;11.134;2023-06-04T05:54:01;15.20;90.40
1812;DHT22;904;47.814;11.134;2023-06-04T05:56:28;15.30;90.20
1812;DHT22;904;47.814;11.134;2023-06-04T05:58:55;15.40;90.20
1812;DHT22;904;47.814;11.134;2023-06-04T06:01:22;15.40;90.00
1812;DHT22;904;47.814;11.134;2023-06-04T06:03:49;15.50;89.80
1812;DHT22;904;47.814;11.134;2023-06-04T06:06:16;15.60;89.30
1812;DHT22;904;47.814;11.134;2023-06-04T06:08:45;15.80;88.30
1812;DHT22;904;47.814;11.134;2023-06-04T06:11:12;15.80;85.90
1812;DHT22;904;47.814;11.134;2023-06-04T06:13:39;15.90;86.50
1812;DHT22;904;47.814;11.134;2023-06-04T06:16:06;16.00;86.70
1812;DHT22;904;47.814;11.134;2023-06-04T06:18:33;16.10;86.40
1812;DHT22;904;47.814;11.134;2023-06-04T06:21:00;16.20;86.40
1812;DHT22;904;47.814;11.134;2023-06-04T06:23:27;16.30;86.00
1812;DHT22;904;47.814;11.134;2023-06-04T06:25:55;16.50;85.10
1812;DHT22;904;47.814;11.134;2023-06-04T06:28:22;16.60;84.80
1812;DHT22;904;47.814;11.134;2023-06-04T06:30:50;16.70;84.90
1812;DHT22;904;47.814;11.134;2023-06-04T06:33:17;16.80;84.70
1812;DHT22;904;47.814;11.134;2023-06-04T06:35:47;16.90;84.50
1812;DHT22;904;47.814;11.134;2023-06-04T06:38:14;17.00;80.50
1812;DHT22;904;47.814;11.134;2023-06-04T06:40:41;17.00;80.40
1812;DHT22;904;47.814;11.134;2023-06-04T06:43:09;17.10;81.00
1812;DHT22;904;47.814;11.134;2023-06-04T06:45:36;17.20;79.70
1812;DHT22;904;47.814;11.134;2023-06-04T06:48:04;17.30;80.00
1812;DHT22;904;47.814;11.134;2023-06-04T06:50:31;17.40;79.80
1812;DHT22;904;47.814;11.134;2023-06-04T06:52:58;17.50;79.60
1812;DHT22;904;47.814;11.134;2023-06-04T06:55:25;17.70;79.20
1812;DHT22;904;47.814;11.134;2023-06-04T06:57:52;17.80;79.10
1812;DHT22;904;47.814;11.134;2023-06-04T07:00:21;17.90;79.80
1812;DHT22;904;47.814;11.134;2023-06-04T07:02:48;18.10;79.80
1812;DHT22;904;47.814;11.134;2023-06-04T07:05:15;18.20;78.70
1812;DHT22;904;47.814;11.134;2023-06-04T07:07:43;18.40;77.50
1812;DHT22;904;47.814;11.134;2023-06-04T07:10:10;18.50;75.80
1812;DHT22;904;47.814;11.134;2023-06-04T07:12:37;18.60;75.20
1812;DHT22;904;47.814;11.134;2023-06-04T07:15:05;18.70;74.90
1812;DHT22;904;47.814;11.134;2023-06-04T07:17:33;18.90;75.80
1812;DHT22;904;47.814;11.134;2023-06-04T07:20:00;19.00;76.00
1812;DHT22;904;47.814;11.134;2023-06-04T07:22:30;19.20;75.10
1812;DHT22;904;47.814;11.134;2023-06-04T07:24:57;19.30;73.80
1812;DHT22;904;47.814;11.134;2023-06-04T07:27:24;19.40;73.70
1812;DHT22;904;47.814;11.134;2023-06-04T07:29:52;19.50;73.90
1812;DHT22;904;47.814;11.134;2023-06-04T07:32:19;19.70;74.20
1812;DHT22;904;47.814;11.134;2023-06-04T07:34:47;19.80;74.00
1812;DHT22;904;47.814;11.134;2023-06-04T07:37:14;19.90;72.70
1812;DHT22;904;47.814;11.134;2023-06-04T07:39:41;20.10;71.90
1812;DHT22;904;47.814;11.134;2023-06-04T07:42:08;20.20;71.10
1812;DHT22;904;47.814;11.134;2023-06-04T07:44:36;20.30;71.10
1812;DHT22;904;47.814;11.134;2023-06-04T07:47:04;20.50;70.60
1812;DHT22;904;47.814;11.134;2023-06-04T07:49:31;20.60;71.20
1812;DHT22;904;47.814;11.134;2023-06-04T07:51:59;20.80;70.20
1812;DHT22;904;47.814;11.134;2023-06-04T07:54:26;21.00;68.60
1812;DHT22;904;47.814;11.134;2023-06-04T07:56:53;21.10;68.10
1812;DHT22;904;47.814;11.134;2023-06-04T07:59:21;21.20;67.60
1812;DHT22;904;47.814;11.134;2023-06-04T08:01:50;21.30;68.30
1812;DHT22;904;47.814;11.134;2023-06-04T08:04:17;21.40;68.20
1812;DHT22;904;47.814;11.134;2023-06-04T08:06:43;21.60;67.50
1812;DHT22;904;47.814;11.134;2023-06-04T08:09:12;21.80;67.10
1812;DHT22;904;47.814;11.134;2023-06-04T08:11:41;22.00;67.00
1812;DHT22;904;47.814;11.134;2023-06-04T08:14:09;22.20;66.30
1812;DHT22;904;47.814;11.134;2023-06-04T08:16:36;22.30;64.40
1812;DHT22;904;47.814;11.134;2023-06-04T08:19:03;22.40;65.10
1812;DHT22;904;47.814;11.134;2023-06-04T08:21:32;22.60;65.30
1812;DHT22;904;47.814;11.134;2023-06-04T08:23:59;22.90;63.90
1812;DHT22;904;47.814;11.134;2023-06-04T08:26:28;22.90;62.00
1812;DHT22;904;47.814;11.134;2023-06-04T08:28:56;23.10;63.20
1812;DHT22;904;47.814;11.134;2023-06-04T08:31:23;23.30;62.30
1812;DHT22;904;47.814;11.134;2023-06-04T08:33:50;23.50;60.10
1812;DHT22;904;47.814;11.134;2023-06-04T08:36:17;23.70;61.00
1812;DHT22;904;47.814;11.134;2023-06-04T08:38:44;23.80;59.10
1812;DHT22;904;47.814;11.134;2023-06-04T08:41:20;24.00;58.20
1812;DHT22;904;47.814;11.134;2023-06-04T08:43:51;24.10;57.90
1812;DHT22;904;47.814;11.134;2023-06-04T08:46:19;24.30;57.40
1812;DHT22;904;47.814;11.134;2023-06-04T08:48:46;24.30;56.50
1812;DHT22;904;47.814;11.134;2023-06-04T08:51:14;24.50;56.40
1812;DHT22;904;47.814;11.134;2023-06-04T08:53:42;24.60;51.10
1812;DHT22;904;47.814;11.134;2023-06-04T08:56:13;24.70;51.50
1812;DHT22;904;47.814;11.134;2023-06-04T08:58:40;24.90;53.30
1812;DHT22;904;47.814;11.134;2023-06-04T09:01:10;25.10;51.10
1812;DHT22;904;47.814;11.134;2023-06-04T09:03:37;25.30;49.40
1812;DHT22;904;47.814;11.134;2023-06-04T09:06:05;25.40;46.70
1812;DHT22;904;47.814;11.134;2023-06-04T09:08:35;25.40;45.10
1812;DHT22;904;47.814;11.134;2023-06-04T09:11:06;25.30;44.40
1812;DHT22;904;47.814;11.134;2023-06-04T09:13:35;25.40;43.50
1812;DHT22;904;47.814;11.134;2023-06-04T09:16:03;25.50;43.30
1812;DHT22;904;47.814;11.134;2023-06-04T09:18:32;25.70;43.20
1812;DHT22;904;47.814;11.134;2023-06-04T09:21:04;25.70;41.50
1812;DHT22;904;47.814;11.134;2023-06-04T09:23:34;25.70;43.40
1812;DHT22;904;47.814;11.134;2023-06-04T09:26:08;25.80;42.30
1812;DHT22;904;47.814;11.134;2023-06-04T09:28:35;26.00;42.70
1812;DHT22;904;47.814;11.134;2023-06-04T09:31:02;26.30;40.40
1812;DHT22;904;47.814;11.134;2023-06-04T09:33:29;26.30;40.00
1812;DHT22;904;47.814;11.134;2023-06-04T09:35:59;26.40;40.90
1812;DHT22;904;47.814;11.134;2023-06-04T09:38:33;26.60;39.80
1812;DHT22;904;47.814;11.134;2023-06-04T09:41:01;26.60;40.20
1812;DHT22;904;47.814;11.134;2023-06-04T09:43:30;26.70;39.20
1812;DHT22;904;47.814;11.134;2023-06-04T09:46:09;26.80;38.30
1812;DHT22;904;47.814;11.134;2023-06-04T09:48:38;27.10;38.60
1812;DHT22;904;47.814;11.134;2023-06-04T09:51:13;27.40;38.40
1812;DHT22;904;47.814;11.134;2023-06-04T09:53:41;27.40;37.80
1812;DHT22;904;47.814;11.134;2023-06-04T09:56:08;27.40;39.00
1812;DHT22;904;47.814;11.134;2023-06-04T09:58:38;27.60;38.90
1812;DHT22;904;47.814;11.134;2023-06-04T10:01:06;27.70;38.10
1812;DHT22;904;47.814;11.134;2023-06-04T10:03:34;27.70;37.00
1812;DHT22;904;47.814;11.134;2023-06-04T10:06:05;27.80;37.70
1812;DHT22;904;47.814;11.134;2023-06-04T10:08:34;27.90;37.90
1812;DHT22;904;47.814;11.134;2023-06-04T10:11:02;28.00;37.10
1812;DHT22;904;47.814;11.134;2023-06-04T10:13:38;28.00;35.60
1812;DHT22;904;47.814;11.134;2023-06-04T10:16:09;28.00;35.40
1812;DHT22;904;47.814;11.134;2023-06-04T10:18:38;28.20;36.70
1812;DHT22;904;47.814;11.134;2023-06-04T10:21:06;28.40;36.50
1812;DHT22;904;47.814;11.134;2023-06-04T10:23:37;28.60;35.70
1812;DHT22;904;47.814;11.134;2023-06-04T10:26:05;28.90;35.40
1812;DHT22;904;47.814;11.134;2023-06-04T10:28:37;29.00;35.10
1812;DHT22;904;47.814;11.134;2023-06-04T10:31:08;29.30;34.70
1812;DHT22;904;47.814;11.134;2023-06-04T10:33:42;29.50;34.20
1812;DHT22;904;47.814;11.134;2023-06-04T10:36:22;29.70;33.60
1812;DHT22;904;47.814;11.134;2023-06-04T10:38:52;29.80;32.40
1812;DHT22;904;47.814;11.134;2023-06-04T10:41:21;29.80;31.60
1812;DHT22;904;47.814;11.134;2023-06-04T10:43:49;29.70;33.50
1812;DHT22;904;47.814;11.134;2023-06-04T10:46:21;29.80;33.10
1812;DHT22;904;47.814;11.134;2023-06-04T10:48:49;29.80;31.50
1812;DHT22;904;47.814;11.134;2023-06-04T10:51:28;29.60;31.40
1812;DHT22;904;47.814;11.134;2023-06-04T10:53:58;29.40;32.10
1812;DHT22;904;47.814;11.134;2023-06-04T10:56:28;29.30;32.60
1812;DHT22;904;47.814;11.134;2023-06-04T10:58:57;29.20;31.10
1812;DHT22;904;47.814;11.134;2023-06-04T11:01:25;29.10;32.00
1812;DHT22;904;47.814;11.134;2023-06-04T11:03:55;29.10;31.40
1812;DHT22;904;47.814;11.134;2023-06-04T11:06:23;29.10;32.30
1812;DHT22;904;47.814;11.134;2023-06-04T11:09:03;29.20;33.50
1812;DHT22;904;47.814;11.134;2023-06-04T11:11:31;29.40;33.10
1812;DHT22;904;47.814;11.134;2023-06-04T11:14:07;29.60;32.20
1812;DHT22;904;47.814;11.134;2023-06-04T11:16:38;29.80;32.30
1812;DHT22;904;47.814;11.134;2023-06-04T11:19:05;30.00;31.60
1812;DHT22;904;47.814;11.134;2023-06-04T11:21:34;30.10;29.90
1812;DHT22;904;47.814;11.134;2023-06-04T11:24:06;30.00;30.10
1812;DHT22;904;47.814;11.134;2023-06-04T11:26:34;30.00;29.30
1812;DHT22;904;47.814;11.134;2023-06-04T11:29:06;29.80;31.20
1812;DHT22;904;47.814;11.134;2023-06-04T11:31:41;29.80;30.60
1812;DHT22;904;47.814;11.134;2023-06-04T11:34:09;29.80;31.40
1812;DHT22;904;47.814;11.134;2023-06-04T11:36:40;29.90;31.10
1812;DHT22;904;47.814;11.134;2023-06-04T11:39:08;29.90;30.70
1812;DHT22;904;47.814;11.134;2023-06-04T11:41:38;30.00;29.70
1812;DHT22;904;47.814;11.134;2023-06-04T11:44:07;29.90;29.40
1812;DHT22;904;47.814;11.134;2023-06-04T11:46:35;29.70;29.20
1812;DHT22;904;47.814;11.134;2023-06-04T11:49:02;29.60;29.00
1812;DHT22;904;47.814;11.134;2023-06-04T11:51:30;29.50;30.00
1812;DHT22;904;47.814;11.134;2023-06-04T11:54:03;29.40;30.20
1812;DHT22;904;47.814;11.134;2023-06-04T11:56:32;29.40;30.00
1812;DHT22;904;47.814;11.134;2023-06-04T11:58:59;29.40;31.00
1812;DHT22;904;47.814;11.134;2023-06-04T12:01:26;29.30;31.00
1812;DHT22;904;47.814;11.134;2023-06-04T12:03:58;29.30;29.90
1812;DHT22;904;47.814;11.134;2023-06-04T12:06:29;29.20;31.60
1812;DHT22;904;47.814;11.134;2023-06-04T12:09:01;29.20;31.80
1812;DHT22;904;47.814;11.134;2023-06-04T12:11:33;29.10;31.30
1812;DHT22;904;47.814;11.134;2023-06-04T12:14:06;29.20;30.90
1812;DHT22;904;47.814;11.134;2023-06-04T12:16:38;29.20;31.00
1812;DHT22;904;47.814;11.134;2023-06-04T12:19:07;29.20;31.90
1812;DHT22;904;47.814;11.134;2023-06-04T12:21:36;29.30;31.20
1812;DHT22;904;47.814;11.134;2023-06-04T12:24:10;29.30;29.10
1812;DHT22;904;47.814;11.134;2023-06-04T12:26:39;29.40;29.80
1812;DHT22;904;47.814;11.134;2023-06-04T12:29:09;29.40;29.70
1812;DHT22;904;47.814;11.134;2023-06-04T12:31:38;29.30;30.40
1812;DHT22;904;47.814;11.134;2023-06-04T12:34:08;29.20;30.10
1812;DHT22;904;47.814;11.134;2023-06-04T12:36:36;29.10;29.90
1812;DHT22;904;47.814;11.134;2023-06-04T12:39:04;28.90;29.00
1812;DHT22;904;47.814;11.134;2023-06-04T12:41:35;28.80;29.20
1812;DHT22;904;47.814;11.134;2023-06-04T12:44:03;28.70;30.40
1812;DHT22;904;47.814;11.134;2023-06-04T12:46:30;28.70;29.80
1812;DHT22;904;47.814;11.134;2023-06-04T12:48:57;28.70;29.70
1812;DHT22;904;47.814;11.134;2023-06-04T12:51:24;28.80;29.20
1812;DHT22;904;47.814;11.134;2023-06-04T12:53:51;28.90;30.30
1812;DHT22;904;47.814;11.134;2023-06-04T12:56:18;29.00;30.90
1812;DHT22;904;47.814;11.134;2023-06-04T12:58:46;29.00;28.80
1812;DHT22;904;47.814;11.134;2023-06-04T13:01:14;28.80;28.80
1812;DHT22;904;47.814;11.134;2023-06-04T13:03:42;28.60;29.10
1812;DHT22;904;47.814;11.134;2023-06-04T13:06:19;28.40;29.90
1812;DHT22;904;47.814;11.134;2023-06-04T13:08:46;28.20;30.10
1812;DHT22;904;47.814;11.134;2023-06-04T13:11:13;28.10;29.40
1812;DHT22;904;47.814;11.134;2023-06-04T13:13:46;28.00;29.50
1812;DHT22;904;47.814;11.134;2023-06-04T13:16:14;28.00;30.00
1812;DHT22;904;47.814;11.134;2023-06-04T13:18:41;27.90;30.00
1812;DHT22;904;47.814;11.134;2023-06-04T13:21:08;27.90;30.50
1812;DHT22;904;47.814;11.134;2023-06-04T13:23:35;27.90;30.20
1812;DHT22;904;47.814;11.134;2023-06-04T13:26:02;27.90;29.60
1812;DHT22;904;47.814;11.134;2023-06-04T13:28:31;27.80;29.90
1812;DHT22;904;47.814;11.134;2023-06-04T13:30:59;27.70;28.40
1812;DHT22;904;47.814;11.134;2023-06-04T13:33:29;27.60;29.30
1812;DHT22;904;47.814;11.134;2023-06-04T13:35:56;27.60;30.30
1812;DHT22;904;47.814;11.134;2023-06-04T13:38:23;27.60;29.60
1812;DHT22;904;47.814;11.134;2023-06-04T13:40:50;27.50;30.60
1812;DHT22;904;47.814;11.134;2023-06-04T13:43:19;27.60;29.60
1812;DHT22;904;47.814;11.134;2023-06-04T13:45:48;27.50;29.00
1812;DHT22;904;47.814;11.134;2023-06-04T13:48:17;27.50;31.00
1812;DHT22;904;47.814;11.134;2023-06-04T13:50:49;27.40;30.00
1812;DHT22;904;47.814;11.134;2023-06-04T13:53:16;27.40;30.10
1812;DHT22;904;47.814;11.134;2023-06-04T13:55:43;27.40;30.80
1812;DHT22;904;47.814;11.134;2023-06-04T13:58:11;27.30;29.00
1812;DHT22;904;47.814;11.134;2023-06-04T14:00:43;27.30;29.60
1812;DHT22;904;47.814;11.134;2023-06-04T14:03:10;27.30;31.00
1812;DHT22;904;47.814;11.134;2023-06-04T14:05:37;27.30;30.60
1812;DHT22;904;47.814;11.134;2023-06-04T14:08:06;27.30;30.50
1812;DHT22;904;47.814;11.134;2023-06-04T14:10:33;27.30;30.10
1812;DHT22;904;47.814;11.134;2023-06-04T14:13:01;27.30;30.90
1812;DHT22;904;47.814;11.134;2023-06-04T14:15:29;27.30;31.10
1812;DHT22;904;47.814;11.134;2023-06-04T14:17:56;27.30;32.30
1812;DHT22;904;47.814;11.134;2023-06-04T14:20:24;27.30;31.00
1812;DHT22;904;47.814;11.134;2023-06-04T14:22:53;27.30;30.60
1812;DHT22;904;47.814;11.134;2023-06-04T14:25:21;27.30;31.90
1812;DHT22;904;47.814;11.134;2023-06-04T14:27:50;27.40;31.80
1812;DHT22;904;47.814;11.134;2023-06-04T14:30:19;27.40;31.20
1812;DHT22;904;47.814;11.134;2023-06-04T14:32:48;27.50;31.30
1812;DHT22;904;47.814;11.134;2023-06-04T14:35:19;27.50;31.00
1812;DHT22;904;47.814;11.134;2023-06-04T14:37:46;27.50;31.00
1812;DHT22;904;47.814;11.134;2023-06-04T14:40:14;27.40;30.40
1812;DHT22;904;47.814;11.134;2023-06-04T14:42:45;27.40;30.10
1812;DHT22;904;47.814;11.134;2023-06-04T14:45:18;27.40;30.40
1812;DHT22;904;47.814;11.134;2023-06-04T14:47:52;27.40;30.50
1812;DHT22;904;47.814;11.134;2023-06-04T14:50:19;27.30;29.40
1812;DHT22;904;47.814;11.134;2023-06-04T14:52:49;27.20;30.10
1812;DHT22;904;47.814;11.134;2023-06-04T14:55:18;27.10;29.80
1812;DHT22;904;47.814;11.134;2023-06-04T14:57:49;27.10;31.00
1812;DHT22;904;47.814;11.134;2023-06-04T15:00:16;27.00;31.80
1812;DHT22;904;47.814;11.134;2023-06-04T15:02:43;27.00;30.00
1812;DHT22;904;47.814;11.134;2023-06-04T15:05:10;26.90;29.90
1812;DHT22;904;47.814;11.134;2023-06-04T15:07:37;26.90;30.00
1812;DHT22;904;47.814;11.134;2023-06-04T15:10:09;26.80;29.70
1812;DHT22;904;47.814;11.134;2023-06-04T15:12:39;26.80;30.20
1812;DHT22;904;47.814;11.134;2023-06-04T15:15:09;26.80;31.60
1812;DHT22;904;47.814;11.134;2023-06-04T15:17:36;26.90;31.20
1812;DHT22;904;47.814;11.134;2023-06-04T15:20:03;26.90;32.20
1812;DHT22;904;47.814;11.134;2023-06-04T15:22:31;27.00;31.30
1812;DHT22;904;47.814;11.134;2023-06-04T15:25:05;27.00;31.10
1812;DHT22;904;47.814;11.134;2023-06-04T15:27:33;27.00;30.70
1812;DHT22;904;47.814;11.134;2023-06-04T15:30:01;27.10;30.60
1812;DHT22;904;47.814;11.134;2023-06-04T15:32:31;27.10;30.50
1812;DHT22;904;47.814;11.134;2023-06-04T15:35:01;27.00;30.60
1812;DHT22;904;47.814;11.134;2023-06-04T15:37:31;27.00;30.50
1812;DHT22;904;47.814;11.134;2023-06-04T15:39:58;27.00;30.00
1812;DHT22;904;47.814;11.134;2023-06-04T15:42:28;27.00;31.70
1812;DHT22;904;47.814;11.134;2023-06-04T15:45:02;27.10;31.30
1812;DHT22;904;47.814;11.134;2023-06-04T15:47:32;27.10;31.00
1812;DHT22;904;47.814;11.134;2023-06-04T15:50:02;27.10;30.00
1812;DHT22;904;47.814;11.134;2023-06-04T15:52:30;27.10;29.70
1812;DHT22;904;47.814;11.134;2023-06-04T15:55:01;27.00;30.00
1812;DHT22;904;47.814;11.134;2023-06-04T15:57:28;27.00;29.80
1812;DHT22;904;47.814;11.134;2023-06-04T16:00:00;26.90;29.50
1812;DHT22;904;47.814;11.134;2023-06-04T16:02:34;26.80;29.20
1812;DHT22;904;47.814;11.134;2023-06-04T16:05:07;26.60;29.90
1812;DHT22;904;47.814;11.134;2023-06-04T16:07:40;26.60;30.90
1812;DHT22;904;47.814;11.134;2023-06-04T16:10:08;26.50;31.20